createdAt,value
2023-02-05T00:01:22.148Z,-4.04
2023-02-05T00:06:27.022Z,-4.00
2023-02-05T00:11:30.119Z,-4.31
2023-02-05T00:16:35.940Z,-4.11
2023-02-05T00:21:40.752Z,-4.13
2023-02-05T00:26:43.962Z,-4.17
2023-02-05T00:31:49.586Z,-4.25
2023-02-05T00:36:54.416Z,-4.24
2023-02-05T00:41:59.252Z,-4.17
2023-02-05T00:47:02.474Z,-4.28
2023-02-05T00:52:07.197Z,-4.37
2023-02-05T00:57:10.321Z,-4.39
2023-02-05T01:02:13.593Z,-4.36
2023-02-05T01:07:18.254Z,-4.35
2023-02-05T01:12:21.567Z,-4.42
2023-02-05T01:17:24.755Z,-4.40
2023-02-05T01:22:30.339Z,-4.36
2023-02-05T01:27:33.638Z,-4.63
2023-02-05T01:32:36.826Z,-4.49
2023-02-05T01:37:41.492Z,-4.57
2023-02-05T01:42:44.747Z,-4.63
2023-02-05T01:47:48.033Z,-4.50
2023-02-05T01:52:53.656Z,-4.56
2023-02-05T01:57:57.862Z,-4.67
2023-02-05T02:03:01.591Z,-4.71
2023-02-05T02:08:06.261Z,-4.77
2023-02-05T02:13:09.749Z,-4.74
2023-02-05T02:18:29.124Z,-4.80
2023-02-05T02:23:46.647Z,-4.77
2023-02-05T02:28:53.511Z,-5.03
2023-02-05T02:34:02.536Z,-4.79
2023-02-05T02:39:13.635Z,-4.84
2023-02-05T02:44:21.852Z,-4.87
2023-02-05T02:49:31.530Z,-4.89
2023-02-05T02:54:38.443Z,-4.99
2023-02-05T02:59:47.036Z,-5.01
2023-02-05T03:04:53.601Z,-5.20
2023-02-05T03:10:04.288Z,-5.27
2023-02-05T03:15:11.304Z,-5.20
2023-02-05T03:20:20.971Z,-5.11
2023-02-05T03:25:27.368Z,-5.28
2023-02-05T03:30:43.930Z,-5.22
2023-02-05T03:35:55.453Z,-5.38
2023-02-05T03:41:06.388Z,-5.31
2023-02-05T03:46:19.559Z,-5.36
2023-02-05T03:51:34.052Z,-5.51
2023-02-05T03:56:47.154Z,-5.44
2023-02-05T04:01:54.068Z,-5.51
2023-02-05T04:06:57.863Z,-5.52
2023-02-05T04:12:01.378Z,-5.53
2023-02-05T04:17:08.658Z,-5.76
2023-02-05T04:22:12.089Z,-5.75
2023-02-05T04:27:19.116Z,-5.54
2023-02-05T04:32:24.562Z,-5.60
2023-02-05T04:37:27.948Z,-5.50
2023-02-05T04:42:31.584Z,-5.53
2023-02-05T04:47:36.685Z,-5.61
2023-02-05T04:52:39.958Z,-5.61
2023-02-05T04:57:43.337Z,-5.54
2023-02-05T05:02:48.071Z,-5.61
2023-02-05T05:07:51.381Z,-5.50
2023-02-05T05:12:54.695Z,-5.56
2023-02-05T05:17:59.389Z,-5.46
2023-02-05T05:23:02.568Z,-5.40
2023-02-05T05:28:06.167Z,-5.40
2023-02-05T05:33:11.182Z,-5.51
2023-02-05T05:38:14.496Z,-5.34
2023-02-05T05:43:37.078Z,-5.06
2023-02-05T05:48:42.323Z,-4.80
2023-02-05T05:53:47.557Z,-4.46
2023-02-05T05:58:51.341Z,-4.46
2023-02-05T06:03:56.233Z,-4.36
2023-02-05T06:08:59.424Z,-4.23
2023-02-05T06:14:02.575Z,-4.42
2023-02-05T06:19:07.171Z,-4.03
2023-02-05T06:24:10.347Z,-3.84
2023-02-05T06:29:13.440Z,-3.65
2023-02-05T06:34:17.875Z,-3.49
2023-02-05T06:39:21.147Z,-3.43
2023-02-05T06:44:24.483Z,-3.62
2023-02-05T06:49:29.663Z,-3.23
2023-02-05T06:54:33.139Z,-3.14
2023-02-05T06:59:36.445Z,-2.96
2023-02-05T07:04:41.140Z,-2.73
2023-02-05T07:09:44.872Z,-2.89
2023-02-05T07:14:48.381Z,-2.64
2023-02-05T07:19:53.447Z,-2.48
2023-02-05T07:24:58.034Z,-2.41
2023-02-05T07:30:01.460Z,-2.27
2023-02-05T07:35:06.884Z,-2.13
2023-02-05T07:40:11.424Z,-1.92
2023-02-05T07:45:15.256Z,-1.84
2023-02-05T07:50:20.282Z,-1.76
2023-02-05T07:55:23.708Z,-1.38
2023-02-05T08:00:27.105Z,-1.39
2023-02-05T08:05:32.193Z,-1.39
2023-02-05T08:10:36.028Z,-1.13
2023-02-05T08:15:40.274Z,-1.06
2023-02-05T08:20:45.596Z,-0.98
2023-02-05T08:25:49.516Z,-1.17
2023-02-05T08:30:53.042Z,-0.90
2023-02-05T08:35:59.557Z,-0.63
2023-02-05T08:41:12.722Z,-1.05
2023-02-05T08:46:20.659Z,-0.89
2023-02-05T08:51:26.926Z,-0.56
2023-02-05T08:56:30.664Z,-0.33
2023-02-05T09:01:33.940Z,-0.44
2023-02-05T09:06:38.652Z,-0.42
2023-02-05T09:11:42.587Z,-0.19
2023-02-05T09:16:45.876Z,-0.10
2023-02-05T09:21:51.869Z,0.17
2023-02-05T09:26:57.042Z,0.03
2023-02-05T09:32:00.705Z,0.31
2023-02-05T09:37:07.715Z,0.42
2023-02-05T09:42:21.798Z,0.57
2023-02-05T09:47:32.955Z,0.73
2023-02-05T09:52:40.279Z,0.84
2023-02-05T09:57:44.283Z,1.07
2023-02-05T10:02:51.849Z,1.23
2023-02-05T10:08:05.470Z,1.29
2023-02-05T10:13:34.416Z,0.91
2023-02-05T10:18:52.559Z,1.20
2023-02-05T10:24:23.592Z,1.37
2023-02-05T10:29:36.764Z,1.25
2023-02-05T10:34:52.733Z,1.46
2023-02-05T10:39:59.143Z,1.57
2023-02-05T10:45:14.635Z,1.61
2023-02-05T10:50:24.372Z,1.77
2023-02-05T10:55:29.839Z,1.89
2023-02-05T11:00:33.334Z,1.95
2023-02-05T11:05:40.056Z,1.80
2023-02-05T11:10:54.290Z,1.88
2023-02-05T11:16:00.316Z,1.93
2023-02-05T11:21:08.788Z,1.88
2023-02-05T11:26:20.160Z,2.07
2023-02-05T11:31:27.235Z,2.25
2023-02-05T11:36:31.415Z,2.33
2023-02-05T11:41:48.390Z,2.11
2023-02-05T11:46:57.027Z,1.77
2023-02-05T11:52:01.858Z,2.14
2023-02-05T11:57:09.142Z,2.19
2023-02-05T12:02:35.877Z,2.22
2023-02-05T12:07:44.240Z,2.24
2023-02-05T12:13:02.073Z,2.42
2023-02-05T12:18:19.305Z,2.22
2023-02-05T12:23:31.823Z,1.95
2023-02-05T12:28:45.696Z,1.93
2023-02-05T12:34:14.117Z,2.32
2023-02-05T12:39:33.085Z,2.16
2023-02-05T12:44:49.869Z,2.02
2023-02-05T12:50:12.440Z,1.92
2023-02-05T12:55:28.144Z,2.04
2023-02-05T13:00:39.555Z,2.04
2023-02-05T13:05:50.156Z,1.97
2023-02-05T13:10:58.943Z,2.18
2023-02-05T13:16:08.169Z,1.91
2023-02-05T13:21:34.127Z,1.64
2023-02-05T13:26:58.548Z,2.26
2023-02-05T13:32:16.053Z,2.42
2023-02-05T13:37:35.013Z,2.37
2023-02-05T13:43:00.123Z,2.37
2023-02-05T13:48:21.510Z,2.38
2023-02-05T13:53:40.653Z,2.01
2023-02-05T13:58:50.142Z,1.91
2023-02-05T14:04:01.232Z,1.85
2023-02-05T14:09:08.729Z,1.64
2023-02-05T14:14:30.608Z,1.92
2023-02-05T14:20:00.827Z,2.18
2023-02-05T14:25:05.281Z,2.13
2023-02-05T14:30:41.540Z,2.16
2023-02-05T14:35:49.089Z,2.16
2023-02-05T14:41:04.648Z,2.20
2023-02-05T14:46:21.139Z,2.20
2023-02-05T14:51:32.777Z,2.40
2023-02-05T14:56:41.706Z,2.37
2023-02-05T15:01:50.591Z,2.17
2023-02-05T15:06:57.951Z,1.85
2023-02-05T15:12:22.138Z,1.40
2023-02-05T15:17:47.592Z,1.44
2023-02-05T15:22:57.974Z,1.40
2023-02-05T15:28:05.419Z,1.71
2023-02-05T15:33:16.873Z,1.70
2023-02-05T15:38:29.435Z,1.98
2023-02-05T15:43:33.245Z,2.14
2023-02-05T15:48:39.216Z,2.09
2023-02-05T15:53:51.082Z,2.01
2023-02-05T15:58:56.483Z,2.08
2023-02-05T16:04:00.286Z,1.61
2023-02-05T16:09:17.298Z,1.99
2023-02-05T16:14:22.415Z,1.91
2023-02-05T16:19:30.307Z,1.88
2023-02-05T16:24:38.065Z,1.90
2023-02-05T16:29:48.221Z,1.85
2023-02-05T16:34:51.897Z,2.04
2023-02-05T16:39:58.179Z,1.97
2023-02-05T16:45:20.088Z,1.84
2023-02-05T16:50:37.259Z,1.96
2023-02-05T16:55:45.813Z,1.94
2023-02-05T17:00:58.152Z,1.83
2023-02-05T17:06:03.259Z,1.93
2023-02-05T17:11:28.769Z,1.95
2023-02-05T17:16:33.056Z,1.83
2023-02-05T17:21:37.371Z,1.46
2023-02-05T17:26:43.786Z,1.71
2023-02-05T17:31:47.393Z,1.88
2023-02-05T17:36:51.507Z,1.85
2023-02-05T17:42:07.746Z,1.85
2023-02-05T17:47:11.064Z,2.03
2023-02-05T17:52:15.471Z,1.93
2023-02-05T17:57:21.929Z,1.92
2023-02-05T18:02:25.259Z,1.51
2023-02-05T18:07:33.023Z,1.58
2023-02-05T18:12:37.780Z,1.56
2023-02-05T18:17:41.931Z,1.61
2023-02-05T18:22:45.148Z,1.65
2023-02-05T18:27:50.377Z,1.51
2023-02-05T18:32:53.874Z,1.60
2023-02-05T18:37:58.423Z,1.57
2023-02-05T18:43:04.763Z,1.79
2023-02-05T18:48:08.455Z,1.75
2023-02-05T18:53:11.617Z,1.74
2023-02-05T18:58:16.208Z,1.54
2023-02-05T19:03:20.214Z,1.76
2023-02-05T19:08:23.442Z,1.67
2023-02-05T19:13:29.258Z,1.83
2023-02-05T19:18:33.062Z,1.68
2023-02-05T19:23:37.467Z,1.74
2023-02-05T19:28:44.136Z,1.70
2023-02-05T19:33:47.421Z,1.56
2023-02-05T19:38:50.706Z,1.42
2023-02-05T19:43:57.470Z,1.42
2023-02-05T19:49:03.338Z,1.52
2023-02-05T19:54:06.849Z,1.35
2023-02-05T19:59:12.001Z,1.11
2023-02-05T20:04:17.788Z,1.18
2023-02-05T20:09:21.253Z,0.96
2023-02-05T20:14:25.985Z,1.02
2023-02-05T20:19:29.537Z,0.75
2023-02-05T20:24:34.116Z,1.02
2023-02-05T20:29:56.473Z,0.91
2023-02-05T20:35:00.449Z,1.14
2023-02-05T20:40:04.076Z,1.13
2023-02-05T20:45:10.029Z,1.33
2023-02-05T20:50:13.450Z,1.21
2023-02-05T20:55:17.236Z,1.49
2023-02-05T21:00:26.509Z,1.37
2023-02-05T21:05:29.837Z,1.24
2023-02-05T21:10:33.052Z,1.29
2023-02-05T21:15:37.868Z,1.23
2023-02-05T21:20:41.068Z,0.97
2023-02-05T21:25:45.167Z,0.79
2023-02-05T21:30:51.295Z,0.85
2023-02-05T21:35:54.965Z,0.74
2023-02-05T21:41:00.708Z,0.69
2023-02-05T21:46:06.812Z,0.44
2023-02-05T21:51:12.686Z,0.74
2023-02-05T21:56:17.696Z,0.84
2023-02-05T22:01:24.517Z,1.16
2023-02-05T22:06:29.560Z,1.14
2023-02-05T22:11:32.924Z,1.30
2023-02-05T22:16:38.653Z,1.20
2023-02-05T22:21:43.588Z,0.91
2023-02-05T22:26:47.806Z,1.07
2023-02-05T22:31:54.317Z,1.12
2023-02-05T22:36:57.418Z,1.11
2023-02-05T22:42:01.478Z,1.12
2023-02-05T22:47:06.144Z,1.39
2023-02-05T22:52:10.830Z,1.09
2023-02-05T22:57:14.133Z,1.14
2023-02-05T23:02:18.733Z,1.20
2023-02-05T23:07:21.898Z,1.29
2023-02-05T23:12:25.223Z,1.35
2023-02-05T23:17:29.705Z,1.10
2023-02-05T23:22:33.219Z,1.20
2023-02-05T23:27:36.690Z,1.15
2023-02-05T23:32:41.191Z,1.17
2023-02-05T23:37:44.373Z,1.31
2023-02-05T23:42:48.217Z,1.29
2023-02-05T23:47:52.892Z,1.34
2023-02-05T23:52:56.074Z,1.32
2023-02-05T23:57:59.375Z,1.35
